sensor_id;sensor_type;location;lat;lon;timestamp;P1;durP1;ratioP1;P2;durP2;ratioP2
16254;SDS011;8235;52.198;9.904;2023-04-24T00:01:50;1.50;;;0.90;;
16254;SDS011;8235;52.198;9.904;2023-04-24T00:04:17;1.23;;;0.80;;
16254;SDS011;8235;52.198;9.904;2023-04-24T00:06:43;1.43;;;0.70;;
16254;SDS011;8235;52.198;9.904;2023-04-24T00:09:14;2.23;;;0.67;;
16254;SDS011;8235;52.198;9.904;2023-04-24T00:11:40;0.60;;;0.60;;
16254;SDS011;8235;52.198;9.904;2023-04-24T00:14:07;0.70;;;0.70;;
16254;SDS011;8235;52.198;9.904;2023-04-24T00:16:35;0.90;;;0.90;;
16254;SDS011;8235;52.198;9.904;2023-04-24T00:19:01;1.20;;;0.80;;
16254;SDS011;8235;52.198;9.904;2023-04-24T00:21:28;1.63;;;0.90;;
16254;SDS011;8235;52.198;9.904;2023-04-24T00:23:55;0.87;;;0.73;;
16254;SDS011;8235;52.198;9.904;2023-04-24T00:26:21;2.30;;;1.00;;
16254;SDS011;8235;52.198;9.904;2023-04-24T00:28:48;1.30;;;0.90;;
16254;SDS011;8235;52.198;9.904;2023-04-24T00:31:14;2.20;;;0.80;;
16254;SDS011;8235;52.198;9.904;2023-04-24T00:33:42;1.50;;;0.80;;
16254;SDS011;8235;52.198;9.904;2023-04-24T00:36:08;1.00;;;0.90;;
16254;SDS011;8235;52.198;9.904;2023-04-24T00:38:35;1.43;;;0.80;;
16254;SDS011;8235;52.198;9.904;2023-04-24T00:41:02;2.23;;;1.20;;
16254;SDS011;8235;52.198;9.904;2023-04-24T00:43:28;0.80;;;0.80;;
16254;SDS011;8235;52.198;9.904;2023-04-24T00:45:55;1.57;;;0.80;;
16254;SDS011;8235;52.198;9.904;2023-04-24T00:48:21;0.80;;;0.80;;
16254;SDS011;8235;52.198;9.904;2023-04-24T00:50:51;2.50;;;1.10;;
16254;SDS011;8235;52.198;9.904;2023-04-24T00:53:18;1.10;;;1.00;;
16254;SDS011;8235;52.198;9.904;2023-04-24T00:55:44;2.63;;;0.93;;
16254;SDS011;8235;52.198;9.904;2023-04-24T00:58:11;1.33;;;0.77;;
16254;SDS011;8235;52.198;9.904;2023-04-24T01:00:38;0.80;;;0.80;;
16254;SDS011;8235;52.198;9.904;2023-04-24T01:03:05;1.33;;;1.00;;
16254;SDS011;8235;52.198;9.904;2023-04-24T01:05:33;1.10;;;1.00;;
16254;SDS011;8235;52.198;9.904;2023-04-24T01:08:01;1.20;;;0.90;;
16254;SDS011;8235;52.198;9.904;2023-04-24T01:10:28;2.27;;;1.10;;
16254;SDS011;8235;52.198;9.904;2023-04-24T01:12:57;1.30;;;0.90;;
16254;SDS011;8235;52.198;9.904;2023-04-24T01:15:24;2.70;;;1.10;;
16254;SDS011;8235;52.198;9.904;2023-04-24T01:17:51;1.63;;;1.13;;
16254;SDS011;8235;52.198;9.904;2023-04-24T01:20:17;1.63;;;0.87;;
16254;SDS011;8235;52.198;9.904;2023-04-24T01:22:47;1.73;;;1.07;;
16254;SDS011;8235;52.198;9.904;2023-04-24T01:25:13;1.70;;;0.93;;
16254;SDS011;8235;52.198;9.904;2023-04-24T01:27:40;1.33;;;0.90;;
16254;SDS011;8235;52.198;9.904;2023-04-24T01:30:07;1.03;;;0.90;;
16254;SDS011;8235;52.198;9.904;2023-04-24T01:32:34;1.80;;;1.10;;
16254;SDS011;8235;52.198;9.904;2023-04-24T01:35:01;0.90;;;0.80;;
16254;SDS011;8235;52.198;9.904;2023-04-24T01:37:28;2.47;;;1.10;;
16254;SDS011;8235;52.198;9.904;2023-04-24T01:39:58;0.93;;;0.90;;
16254;SDS011;8235;52.198;9.904;2023-04-24T01:42:25;1.70;;;0.73;;
16254;SDS011;8235;52.198;9.904;2023-04-24T01:44:53;1.03;;;0.90;;
16254;SDS011;8235;52.198;9.904;2023-04-24T01:47:20;1.37;;;0.80;;
16254;SDS011;8235;52.198;9.904;2023-04-24T01:49:47;1.10;;;0.90;;
16254;SDS011;8235;52.198;9.904;2023-04-24T01:52:14;1.10;;;0.80;;
16254;SDS011;8235;52.198;9.904;2023-04-24T01:54:41;1.17;;;0.70;;
16254;SDS011;8235;52.198;9.904;2023-04-24T01:57:09;1.67;;;0.90;;
16254;SDS011;8235;52.198;9.904;2023-04-24T01:59:35;1.90;;;0.80;;
16254;SDS011;8235;52.198;9.904;2023-04-24T02:02:02;1.53;;;0.80;;
16254;SDS011;8235;52.198;9.904;2023-04-24T02:04:28;0.80;;;0.70;;
16254;SDS011;8235;52.198;9.904;2023-04-24T02:06:55;0.93;;;0.90;;
16254;SDS011;8235;52.198;9.904;2023-04-24T02:09:21;1.20;;;0.80;;
16254;SDS011;8235;52.198;9.904;2023-04-24T02:11:48;0.60;;;0.60;;
16254;SDS011;8235;52.198;9.904;2023-04-24T02:14:16;1.00;;;0.60;;
16254;SDS011;8235;52.198;9.904;2023-04-24T02:16:42;1.03;;;0.70;;
16254;SDS011;8235;52.198;9.904;2023-04-24T02:19:09;1.00;;;0.60;;
16254;SDS011;8235;52.198;9.904;2023-04-24T02:21:35;1.73;;;0.70;;
16254;SDS011;8235;52.198;9.904;2023-04-24T02:24:02;2.30;;;0.60;;
16254;SDS011;8235;52.198;9.904;2023-04-24T02:26:28;1.30;;;0.60;;
16254;SDS011;8235;52.198;9.904;2023-04-24T02:28:56;1.93;;;0.80;;
16254;SDS011;8235;52.198;9.904;2023-04-24T02:31:24;0.70;;;0.70;;
16254;SDS011;8235;52.198;9.904;2023-04-24T02:33:51;1.00;;;0.50;;
16254;SDS011;8235;52.198;9.904;2023-04-24T02:36:17;1.93;;;0.83;;
16254;SDS011;8235;52.198;9.904;2023-04-24T02:38:43;0.60;;;0.60;;
16254;SDS011;8235;52.198;9.904;2023-04-24T02:41:10;2.00;;;0.80;;
16254;SDS011;8235;52.198;9.904;2023-04-24T02:43:36;1.33;;;0.73;;
16254;SDS011;8235;52.198;9.904;2023-04-24T02:46:03;1.23;;;0.60;;
16254;SDS011;8235;52.198;9.904;2023-04-24T02:48:31;0.70;;;0.60;;
16254;SDS011;8235;52.198;9.904;2023-04-24T02:50:57;1.53;;;0.80;;
16254;SDS011;8235;52.198;9.904;2023-04-24T02:53:24;1.07;;;0.73;;
16254;SDS011;8235;52.198;9.904;2023-04-24T02:55:50;1.57;;;1.03;;
16254;SDS011;8235;52.198;9.904;2023-04-24T02:58:17;0.60;;;0.60;;
16254;SDS011;8235;52.198;9.904;2023-04-24T03:00:45;0.93;;;0.60;;
16254;SDS011;8235;52.198;9.904;2023-04-24T03:03:11;0.60;;;0.50;;
16254;SDS011;8235;52.198;9.904;2023-04-24T03:05:39;0.90;;;0.60;;
16254;SDS011;8235;52.198;9.904;2023-04-24T03:08:05;1.73;;;0.50;;
16254;SDS011;8235;52.198;9.904;2023-04-24T03:10:32;1.10;;;0.60;;
16254;SDS011;8235;52.198;9.904;2023-04-24T03:12:58;0.50;;;0.50;;
16254;SDS011;8235;52.198;9.904;2023-04-24T03:15:25;1.03;;;0.50;;
16254;SDS011;8235;52.198;9.904;2023-04-24T03:17:52;0.57;;;0.57;;
16254;SDS011;8235;52.198;9.904;2023-04-24T03:20:18;0.80;;;0.60;;
16254;SDS011;8235;52.198;9.904;2023-04-24T03:22:46;1.97;;;0.70;;
16254;SDS011;8235;52.198;9.904;2023-04-24T03:25:13;1.90;;;0.60;;
16254;SDS011;8235;52.198;9.904;2023-04-24T03:27:39;1.27;;;0.50;;
16254;SDS011;8235;52.198;9.904;2023-04-24T03:30:07;0.80;;;0.67;;
16254;SDS011;8235;52.198;9.904;2023-04-24T03:32:34;2.83;;;0.70;;
16254;SDS011;8235;52.198;9.904;2023-04-24T03:35:00;0.87;;;0.50;;
16254;SDS011;8235;52.198;9.904;2023-04-24T03:37:27;0.60;;;0.60;;
16254;SDS011;8235;52.198;9.904;2023-04-24T03:39:55;0.80;;;0.50;;
16254;SDS011;8235;52.198;9.904;2023-04-24T03:42:21;0.90;;;0.80;;
16254;SDS011;8235;52.198;9.904;2023-04-24T03:44:48;1.33;;;0.60;;
16254;SDS011;8235;52.198;9.904;2023-04-24T03:47:14;1.10;;;0.50;;
16254;SDS011;8235;52.198;9.904;2023-04-24T03:49:41;0.90;;;0.50;;
16254;SDS011;8235;52.198;9.904;2023-04-24T03:52:07;0.87;;;0.50;;
16254;SDS011;8235;52.198;9.904;2023-04-24T03:54:34;0.60;;;0.60;;
16254;SDS011;8235;52.198;9.904;2023-04-24T03:57:01;0.43;;;0.43;;
16254;SDS011;8235;52.198;9.904;2023-04-24T03:59:29;0.37;;;0.37;;
16254;SDS011;8235;52.198;9.904;2023-04-24T04:01:56;1.53;;;0.50;;
16254;SDS011;8235;52.198;9.904;2023-04-24T04:04:22;0.60;;;0.40;;
16254;SDS011;8235;52.198;9.904;2023-04-24T04:06:49;0.60;;;0.47;;
16254;SDS011;8235;52.198;9.904;2023-04-24T04:09:16;0.30;;;0.30;;
16254;SDS011;8235;52.198;9.904;2023-04-24T04:11:42;0.40;;;0.40;;
16254;SDS011;8235;52.198;9.904;2023-04-24T04:14:10;1.50;;;0.50;;
16254;SDS011;8235;52.198;9.904;2023-04-24T04:16:37;0.63;;;0.40;;
16254;SDS011;8235;52.198;9.904;2023-04-24T04:19:03;0.60;;;0.50;;
16254;SDS011;8235;52.198;9.904;2023-04-24T04:21:30;0.50;;;0.50;;
16254;SDS011;8235;52.198;9.904;2023-04-24T04:23:57;0.47;;;0.47;;
16254;SDS011;8235;52.198;9.904;2023-04-24T04:26:24;1.17;;;0.40;;
16254;SDS011;8235;52.198;9.904;2023-04-24T04:28:50;0.83;;;0.43;;
16254;SDS011;8235;52.198;9.904;2023-04-24T04:31:18;1.57;;;0.60;;
16254;SDS011;8235;52.198;9.904;2023-04-24T04:33:45;1.63;;;0.57;;
16254;SDS011;8235;52.198;9.904;2023-04-24T04:36:12;1.13;;;0.70;;
16254;SDS011;8235;52.198;9.904;2023-04-24T04:38:38;1.07;;;0.57;;
16254;SDS011;8235;52.198;9.904;2023-04-24T04:41:05;1.60;;;0.50;;
16254;SDS011;8235;52.198;9.904;2023-04-24T04:43:32;1.63;;;0.53;;
16254;SDS011;8235;52.198;9.904;2023-04-24T04:45:59;1.63;;;0.60;;
16254;SDS011;8235;52.198;9.904;2023-04-24T04:48:29;1.90;;;0.57;;
16254;SDS011;8235;52.198;9.904;2023-04-24T04:50:56;1.00;;;0.60;;
16254;SDS011;8235;52.198;9.904;2023-04-24T04:53:23;1.30;;;0.60;;
16254;SDS011;8235;52.198;9.904;2023-04-24T04:55:50;1.40;;;0.70;;
16254;SDS011;8235;52.198;9.904;2023-04-24T04:58:16;0.47;;;0.43;;
16254;SDS011;8235;52.198;9.904;2023-04-24T05:00:42;3.70;;;0.87;;
16254;SDS011;8235;52.198;9.904;2023-04-24T05:03:09;0.57;;;0.50;;
16254;SDS011;8235;52.198;9.904;2023-04-24T05:05:37;1.27;;;0.60;;
16254;SDS011;8235;52.198;9.904;2023-04-24T05:08:05;0.97;;;0.40;;
16254;SDS011;8235;52.198;9.904;2023-04-24T05:10:32;0.53;;;0.43;;
16254;SDS011;8235;52.198;9.904;2023-04-24T05:12:58;1.07;;;0.50;;
16254;SDS011;8235;52.198;9.904;2023-04-24T05:15:25;0.50;;;0.50;;
16254;SDS011;8235;52.198;9.904;2023-04-24T05:17:52;1.37;;;0.73;;
16254;SDS011;8235;52.198;9.904;2023-04-24T05:20:18;0.80;;;0.80;;
16254;SDS011;8235;52.198;9.904;2023-04-24T05:22:46;0.67;;;0.53;;
16254;SDS011;8235;52.198;9.904;2023-04-24T05:25:12;2.13;;;0.50;;
16254;SDS011;8235;52.198;9.904;2023-04-24T05:27:39;1.10;;;0.50;;
16254;SDS011;8235;52.198;9.904;2023-04-24T05:30:06;0.63;;;0.60;;
16254;SDS011;8235;52.198;9.904;2023-04-24T05:32:34;0.40;;;0.40;;
16254;SDS011;8235;52.198;9.904;2023-04-24T05:35:00;1.33;;;0.43;;
16254;SDS011;8235;52.198;9.904;2023-04-24T05:37:27;1.67;;;0.50;;
16254;SDS011;8235;52.198;9.904;2023-04-24T05:39:55;1.13;;;0.40;;
16254;SDS011;8235;52.198;9.904;2023-04-24T05:42:21;2.73;;;0.60;;
16254;SDS011;8235;52.198;9.904;2023-04-24T05:44:47;0.87;;;0.50;;
16254;SDS011;8235;52.198;9.904;2023-04-24T05:47:14;0.30;;;0.30;;
16254;SDS011;8235;52.198;9.904;2023-04-24T05:49:41;0.40;;;0.40;;
16254;SDS011;8235;52.198;9.904;2023-04-24T05:52:07;0.40;;;0.40;;
16254;SDS011;8235;52.198;9.904;2023-04-24T05:54:34;0.43;;;0.40;;
16254;SDS011;8235;52.198;9.904;2023-04-24T05:57:02;0.90;;;0.60;;
16254;SDS011;8235;52.198;9.904;2023-04-24T05:59:32;0.40;;;0.40;;
16254;SDS011;8235;52.198;9.904;2023-04-24T06:01:59;0.40;;;0.40;;
16254;SDS011;8235;52.198;9.904;2023-04-24T06:04:25;0.83;;;0.60;;
16254;SDS011;8235;52.198;9.904;2023-04-24T06:06:52;0.60;;;0.40;;
16254;SDS011;8235;52.198;9.904;2023-04-24T06:09:20;0.40;;;0.40;;
16254;SDS011;8235;52.198;9.904;2023-04-24T06:11:47;0.97;;;0.30;;
16254;SDS011;8235;52.198;9.904;2023-04-24T06:14:15;0.30;;;0.30;;
16254;SDS011;8235;52.198;9.904;2023-04-24T06:16:41;1.23;;;0.70;;
16254;SDS011;8235;52.198;9.904;2023-04-24T06:19:08;0.40;;;0.30;;
16254;SDS011;8235;52.198;9.904;2023-04-24T06:21:35;0.77;;;0.40;;
16254;SDS011;8235;52.198;9.904;2023-04-24T06:24:01;0.40;;;0.40;;
16254;SDS011;8235;52.198;9.904;2023-04-24T06:26:28;2.60;;;0.70;;
16254;SDS011;8235;52.198;9.904;2023-04-24T06:28:55;1.33;;;0.80;;
16254;SDS011;8235;52.198;9.904;2023-04-24T06:31:24;1.30;;;0.60;;
16254;SDS011;8235;52.198;9.904;2023-04-24T06:33:51;0.80;;;0.60;;
16254;SDS011;8235;52.198;9.904;2023-04-24T06:36:17;1.73;;;0.70;;
16254;SDS011;8235;52.198;9.904;2023-04-24T06:38:44;1.10;;;1.00;;
16254;SDS011;8235;52.198;9.904;2023-04-24T06:41:11;2.70;;;1.10;;
16254;SDS011;8235;52.198;9.904;2023-04-24T06:43:38;0.93;;;0.90;;
16254;SDS011;8235;52.198;9.904;2023-04-24T06:46:04;0.80;;;0.80;;
16254;SDS011;8235;52.198;9.904;2023-04-24T06:48:32;1.67;;;1.00;;
16254;SDS011;8235;52.198;9.904;2023-04-24T06:50:58;1.00;;;1.00;;
16254;SDS011;8235;52.198;9.904;2023-04-24T06:53:25;2.33;;;1.03;;
16254;SDS011;8235;52.198;9.904;2023-04-24T06:55:52;2.37;;;1.30;;
16254;SDS011;8235;52.198;9.904;2023-04-24T06:58:18;1.30;;;1.20;;
16254;SDS011;8235;52.198;9.904;2023-04-24T07:00:45;2.90;;;1.57;;
16254;SDS011;8235;52.198;9.904;2023-04-24T07:03:11;1.70;;;1.20;;
16254;SDS011;8235;52.198;9.904;2023-04-24T07:05:39;1.70;;;1.40;;
16254;SDS011;8235;52.198;9.904;2023-04-24T07:08:06;1.90;;;1.50;;
16254;SDS011;8235;52.198;9.904;2023-04-24T07:10:33;3.83;;;1.80;;
16254;SDS011;8235;52.198;9.904;2023-04-24T07:13:00;2.00;;;1.70;;
16254;SDS011;8235;52.198;9.904;2023-04-24T07:15:27;1.77;;;1.67;;
16254;SDS011;8235;52.198;9.904;2023-04-24T07:17:53;2.13;;;1.97;;
16254;SDS011;8235;52.198;9.904;2023-04-24T07:20:20;2.70;;;2.50;;
16254;SDS011;8235;52.198;9.904;2023-04-24T07:22:48;4.83;;;2.10;;
16254;SDS011;8235;52.198;9.904;2023-04-24T07:25:16;3.63;;;2.33;;
16254;SDS011;8235;52.198;9.904;2023-04-24T07:27:43;3.10;;;2.17;;
16254;SDS011;8235;52.198;9.904;2023-04-24T07:30:10;3.13;;;2.50;;
16254;SDS011;8235;52.198;9.904;2023-04-24T07:32:37;3.30;;;3.00;;
16254;SDS011;8235;52.198;9.904;2023-04-24T07:35:03;4.53;;;3.07;;
16254;SDS011;8235;52.198;9.904;2023-04-24T07:37:30;3.33;;;3.07;;
16254;SDS011;8235;52.198;9.904;2023-04-24T07:39:58;3.37;;;3.13;;
16254;SDS011;8235;52.198;9.904;2023-04-24T07:42:25;4.27;;;3.53;;
16254;SDS011;8235;52.198;9.904;2023-04-24T07:44:51;4.07;;;3.70;;
16254;SDS011;8235;52.198;9.904;2023-04-24T07:47:17;5.23;;;3.60;;
16254;SDS011;8235;52.198;9.904;2023-04-24T07:49:44;4.97;;;4.30;;
16254;SDS011;8235;52.198;9.904;2023-04-24T07:52:10;5.60;;;3.90;;
16254;SDS011;8235;52.198;9.904;2023-04-24T07:54:37;5.50;;;4.53;;
16254;SDS011;8235;52.198;9.904;2023-04-24T07:57:05;7.10;;;5.00;;
16254;SDS011;8235;52.198;9.904;2023-04-24T07:59:33;5.20;;;4.70;;
16254;SDS011;8235;52.198;9.904;2023-04-24T08:01:59;5.37;;;4.63;;
16254;SDS011;8235;52.198;9.904;2023-04-24T08:04:26;5.23;;;4.60;;
16254;SDS011;8235;52.198;9.904;2023-04-24T08:06:53;6.03;;;5.43;;
16254;SDS011;8235;52.198;9.904;2023-04-24T08:09:20;5.27;;;4.77;;
16254;SDS011;8235;52.198;9.904;2023-04-24T08:11:46;5.83;;;5.23;;
16254;SDS011;8235;52.198;9.904;2023-04-24T08:14:14;6.10;;;4.83;;
16254;SDS011;8235;52.198;9.904;2023-04-24T08:16:40;5.40;;;4.80;;
16254;SDS011;8235;52.198;9.904;2023-04-24T08:19:07;5.43;;;4.93;;
16254;SDS011;8235;52.198;9.904;2023-04-24T08:21:34;4.77;;;4.27;;
16254;SDS011;8235;52.198;9.904;2023-04-24T08:24:00;5.50;;;4.67;;
16254;SDS011;8235;52.198;9.904;2023-04-24T08:26:30;5.67;;;4.20;;
16254;SDS011;8235;52.198;9.904;2023-04-24T08:28:56;4.63;;;4.13;;
16254;SDS011;8235;52.198;9.904;2023-04-24T08:31:24;6.27;;;4.27;;
16254;SDS011;8235;52.198;9.904;2023-04-24T08:33:51;4.80;;;4.30;;
16254;SDS011;8235;52.198;9.904;2023-04-24T08:36:17;4.77;;;4.30;;
16254;SDS011;8235;52.198;9.904;2023-04-24T08:38:44;5.77;;;4.70;;
16254;SDS011;8235;52.198;9.904;2023-04-24T08:41:11;5.27;;;4.27;;
16254;SDS011;8235;52.198;9.904;2023-04-24T08:43:40;5.50;;;3.83;;
16254;SDS011;8235;52.198;9.904;2023-04-24T08:46:08;4.53;;;3.70;;
16254;SDS011;8235;52.198;9.904;2023-04-24T08:48:36;4.37;;;4.00;;
16254;SDS011;8235;52.198;9.904;2023-04-24T08:51:04;3.43;;;3.10;;
16254;SDS011;8235;52.198;9.904;2023-04-24T08:53:33;3.40;;;3.10;;
16254;SDS011;8235;52.198;9.904;2023-04-24T08:56:00;3.17;;;2.87;;
16254;SDS011;8235;52.198;9.904;2023-04-24T08:58:28;3.27;;;2.40;;
16254;SDS011;8235;52.198;9.904;2023-04-24T09:00:55;3.33;;;2.90;;
16254;SDS011;8235;52.198;9.904;2023-04-24T09:03:22;4.10;;;2.60;;
16254;SDS011;8235;52.198;9.904;2023-04-24T09:05:51;3.10;;;2.80;;
16254;SDS011;8235;52.198;9.904;2023-04-24T09:08:19;3.50;;;3.20;;
16254;SDS011;8235;52.198;9.904;2023-04-24T09:10:49;3.50;;;3.20;;
16254;SDS011;8235;52.198;9.904;2023-04-24T09:13:16;3.97;;;3.67;;
16254;SDS011;8235;52.198;9.904;2023-04-24T09:15:44;4.00;;;3.60;;
16254;SDS011;8235;52.198;9.904;2023-04-24T09:18:11;4.97;;;4.00;;
16254;SDS011;8235;52.198;9.904;2023-04-24T09:23:27;2.87;;;2.50;;
16254;SDS011;8235;52.198;9.904;2023-04-24T09:25:55;2.60;;;2.40;;
16254;SDS011;8235;52.198;9.904;2023-04-24T09:28:25;3.60;;;2.90;;
16254;SDS011;8235;52.198;9.904;2023-04-24T09:31:01;3.80;;;2.83;;
16254;SDS011;8235;52.198;9.904;2023-04-24T09:33:29;3.10;;;2.80;;
16254;SDS011;8235;52.198;9.904;2023-04-24T09:35:55;3.97;;;3.00;;
16254;SDS011;8235;52.198;9.904;2023-04-24T09:38:31;3.20;;;2.70;;
16254;SDS011;8235;52.198;9.904;2023-04-24T09:41:00;3.60;;;2.83;;
16254;SDS011;8235;52.198;9.904;2023-04-24T09:43:28;4.30;;;2.80;;
16254;SDS011;8235;52.198;9.904;2023-04-24T09:45:55;2.23;;;1.90;;
16254;SDS011;8235;52.198;9.904;2023-04-24T09:48:32;2.37;;;1.77;;
16254;SDS011;8235;52.198;9.904;2023-04-24T09:51:01;3.17;;;1.90;;
16254;SDS011;8235;52.198;9.904;2023-04-24T09:53:29;1.70;;;1.60;;
16254;SDS011;8235;52.198;9.904;2023-04-24T09:55:58;2.07;;;1.33;;
16254;SDS011;8235;52.198;9.904;2023-04-24T09:58:28;1.50;;;1.40;;
16254;SDS011;8235;52.198;9.904;2023-04-24T10:00:55;2.00;;;1.77;;
16254;SDS011;8235;52.198;9.904;2023-04-24T10:03:23;2.23;;;1.63;;
16254;SDS011;8235;52.198;9.904;2023-04-24T10:05:51;2.53;;;1.77;;
16254;SDS011;8235;52.198;9.904;2023-04-24T10:08:18;2.00;;;1.80;;
16254;SDS011;8235;52.198;9.904;2023-04-24T10:10:45;1.70;;;1.60;;
16254;SDS011;8235;52.198;9.904;2023-04-24T10:13:13;1.70;;;1.60;;
16254;SDS011;8235;52.198;9.904;2023-04-24T10:15:41;3.07;;;1.73;;
16254;SDS011;8235;52.198;9.904;2023-04-24T10:18:08;1.90;;;1.27;;
16254;SDS011;8235;52.198;9.904;2023-04-24T10:20:36;1.90;;;1.70;;
16254;SDS011;8235;52.198;9.904;2023-04-24T10:23:04;1.63;;;1.53;;
16254;SDS011;8235;52.198;9.904;2023-04-24T10:25:32;1.83;;;1.63;;
16254;SDS011;8235;52.198;9.904;2023-04-24T10:28:00;2.70;;;1.90;;
16254;SDS011;8235;52.198;9.904;2023-04-24T10:30:29;3.13;;;1.63;;
16254;SDS011;8235;52.198;9.904;2023-04-24T10:32:59;1.83;;;1.73;;
16254;SDS011;8235;52.198;9.904;2023-04-24T10:35:26;1.63;;;1.53;;
16254;SDS011;8235;52.198;9.904;2023-04-24T10:37:57;2.13;;;1.87;;
16254;SDS011;8235;52.198;9.904;2023-04-24T10:40:29;2.00;;;1.60;;
16254;SDS011;8235;52.198;9.904;2023-04-24T10:42:57;6.07;;;2.90;;
16254;SDS011;8235;52.198;9.904;2023-04-24T10:45:24;2.37;;;1.80;;
16254;SDS011;8235;52.198;9.904;2023-04-24T10:47:53;2.23;;;1.90;;
16254;SDS011;8235;52.198;9.904;2023-04-24T10:50:23;2.87;;;1.67;;
16254;SDS011;8235;52.198;9.904;2023-04-24T10:52:50;1.50;;;1.40;;
16254;SDS011;8235;52.198;9.904;2023-04-24T10:55:29;2.07;;;1.70;;
16254;SDS011;8235;52.198;9.904;2023-04-24T10:58:05;1.97;;;1.87;;
16254;SDS011;8235;52.198;9.904;2023-04-24T11:00:32;2.53;;;1.90;;
16254;SDS011;8235;52.198;9.904;2023-04-24T11:03:00;5.13;;;1.83;;
16254;SDS011;8235;52.198;9.904;2023-04-24T11:08:36;2.27;;;1.80;;
16254;SDS011;8235;52.198;9.904;2023-04-24T11:11:08;1.77;;;1.43;;
16254;SDS011;8235;52.198;9.904;2023-04-24T11:16:33;1.00;;;0.90;;
16254;SDS011;8235;52.198;9.904;2023-04-24T11:19:02;0.67;;;0.67;;
16254;SDS011;8235;52.198;9.904;2023-04-24T11:24:23;0.90;;;0.70;;
16254;SDS011;8235;52.198;9.904;2023-04-24T11:26:54;1.03;;;0.93;;
16254;SDS011;8235;52.198;9.904;2023-04-24T11:29:21;1.63;;;0.97;;
16254;SDS011;8235;52.198;9.904;2023-04-24T11:31:49;1.00;;;0.80;;
16254;SDS011;8235;52.198;9.904;2023-04-24T11:34:18;0.70;;;0.70;;
16254;SDS011;8235;52.198;9.904;2023-04-24T11:36:45;1.00;;;0.90;;
16254;SDS011;8235;52.198;9.904;2023-04-24T11:39:12;0.70;;;0.70;;
16254;SDS011;8235;52.198;9.904;2023-04-24T11:41:39;1.30;;;0.80;;
16254;SDS011;8235;52.198;9.904;2023-04-24T11:44:06;1.77;;;1.40;;
16254;SDS011;8235;52.198;9.904;2023-04-24T11:46:34;1.73;;;1.37;;
16254;SDS011;8235;52.198;9.904;2023-04-24T11:49:02;1.73;;;1.53;;
16254;SDS011;8235;52.198;9.904;2023-04-24T11:51:31;1.23;;;1.13;;
16254;SDS011;8235;52.198;9.904;2023-04-24T11:53:58;2.70;;;0.93;;
16254;SDS011;8235;52.198;9.904;2023-04-24T11:56:24;1.53;;;1.07;;
16254;SDS011;8235;52.198;9.904;2023-04-24T11:58:51;2.60;;;1.07;;
16254;SDS011;8235;52.198;9.904;2023-04-24T12:01:19;1.07;;;1.07;;
16254;SDS011;8235;52.198;9.904;2023-04-24T12:03:47;1.00;;;1.00;;
16254;SDS011;8235;52.198;9.904;2023-04-24T12:06:14;1.00;;;1.00;;
16254;SDS011;8235;52.198;9.904;2023-04-24T12:08:42;3.17;;;1.00;;
16254;SDS011;8235;52.198;9.904;2023-04-24T12:11:14;1.30;;;1.20;;
16254;SDS011;8235;52.198;9.904;2023-04-24T12:13:41;1.63;;;1.07;;
16254;SDS011;8235;52.198;9.904;2023-04-24T12:16:07;1.87;;;1.40;;
16254;SDS011;8235;52.198;9.904;2023-04-24T12:18:34;1.80;;;1.40;;
16254;SDS011;8235;52.198;9.904;2023-04-24T12:21:14;1.40;;;1.13;;
16254;SDS011;8235;52.198;9.904;2023-04-24T12:23:43;0.90;;;0.77;;
16254;SDS011;8235;52.198;9.904;2023-04-24T12:26:11;1.30;;;0.40;;
16254;SDS011;8235;52.198;9.904;2023-04-24T12:28:38;0.83;;;0.40;;
16254;SDS011;8235;52.198;9.904;2023-04-24T12:31:05;0.77;;;0.50;;
16254;SDS011;8235;52.198;9.904;2023-04-24T12:33:33;3.60;;;1.33;;
16254;SDS011;8235;52.198;9.904;2023-04-24T12:36:00;0.70;;;0.70;;
16254;SDS011;8235;52.198;9.904;2023-04-24T12:38:27;1.03;;;0.93;;
16254;SDS011;8235;52.198;9.904;2023-04-24T12:41:03;0.73;;;0.70;;
16254;SDS011;8235;52.198;9.904;2023-04-24T12:43:31;1.00;;;0.60;;
16254;SDS011;8235;52.198;9.904;2023-04-24T12:45:57;0.60;;;0.60;;
16254;SDS011;8235;52.198;9.904;2023-04-24T12:48:24;2.20;;;0.87;;
16254;SDS011;8235;52.198;9.904;2023-04-24T12:50:51;0.73;;;0.73;;
16254;SDS011;8235;52.198;9.904;2023-04-24T12:53:17;0.93;;;0.80;;
16254;SDS011;8235;52.198;9.904;2023-04-24T12:55:44;0.93;;;0.87;;
16254;SDS011;8235;52.198;9.904;2023-04-24T12:58:13;1.17;;;0.80;;
16254;SDS011;8235;52.198;9.904;2023-04-24T13:00:39;0.83;;;0.80;;
16254;SDS011;8235;52.198;9.904;2023-04-24T13:03:08;1.50;;;0.90;;
16254;SDS011;8235;52.198;9.904;2023-04-24T13:05:34;1.37;;;0.90;;
16254;SDS011;8235;52.198;9.904;2023-04-24T13:08:01;0.80;;;0.80;;
16254;SDS011;8235;52.198;9.904;2023-04-24T13:10:27;1.03;;;0.83;;
16254;SDS011;8235;52.198;9.904;2023-04-24T13:12:54;2.43;;;0.90;;
16254;SDS011;8235;52.198;9.904;2023-04-24T13:15:21;0.80;;;0.80;;
16254;SDS011;8235;52.198;9.904;2023-04-24T13:17:48;0.93;;;0.80;;
16254;SDS011;8235;52.198;9.904;2023-04-24T13:20:15;0.90;;;0.90;;
16254;SDS011;8235;52.198;9.904;2023-04-24T13:22:42;1.50;;;0.93;;
16254;SDS011;8235;52.198;9.904;2023-04-24T13:25:08;0.50;;;0.50;;
16254;SDS011;8235;52.198;9.904;2023-04-24T13:27:35;0.60;;;0.50;;
16254;SDS011;8235;52.198;9.904;2023-04-24T13:30:01;0.40;;;0.40;;
16254;SDS011;8235;52.198;9.904;2023-04-24T13:32:30;0.53;;;0.40;;
16254;SDS011;8235;52.198;9.904;2023-04-24T13:34:56;2.30;;;0.40;;
16254;SDS011;8235;52.198;9.904;2023-04-24T13:37:23;0.50;;;0.50;;
16254;SDS011;8235;52.198;9.904;2023-04-24T13:39:49;1.33;;;0.60;;
16254;SDS011;8235;52.198;9.904;2023-04-24T13:42:16;1.43;;;0.50;;
16254;SDS011;8235;52.198;9.904;2023-04-24T13:44:43;0.50;;;0.40;;
16254;SDS011;8235;52.198;9.904;2023-04-24T13:47:10;0.40;;;0.40;;
16254;SDS011;8235;52.198;9.904;2023-04-24T13:49:38;0.50;;;0.50;;
16254;SDS011;8235;52.198;9.904;2023-04-24T13:52:05;0.40;;;0.40;;
16254;SDS011;8235;52.198;9.904;2023-04-24T13:54:32;0.67;;;0.40;;
16254;SDS011;8235;52.198;9.904;2023-04-24T13:56:58;1.13;;;0.30;;
16254;SDS011;8235;52.198;9.904;2023-04-24T13:59:25;1.67;;;0.30;;
16254;SDS011;8235;52.198;9.904;2023-04-24T14:01:51;0.87;;;0.40;;
16254;SDS011;8235;52.198;9.904;2023-04-24T14:04:18;0.40;;;0.30;;
16254;SDS011;8235;52.198;9.904;2023-04-24T14:06:46;0.33;;;0.30;;
16254;SDS011;8235;52.198;9.904;2023-04-24T14:09:12;0.40;;;0.30;;
16254;SDS011;8235;52.198;9.904;2023-04-24T14:11:39;0.60;;;0.40;;
16254;SDS011;8235;52.198;9.904;2023-04-24T14:14:05;0.90;;;0.90;;
16254;SDS011;8235;52.198;9.904;2023-04-24T14:16:32;0.60;;;0.60;;
16254;SDS011;8235;52.198;9.904;2023-04-24T14:18:59;0.57;;;0.50;;
16254;SDS011;8235;52.198;9.904;2023-04-24T14:21:26;0.53;;;0.53;;
16254;SDS011;8235;52.198;9.904;2023-04-24T14:23:54;1.70;;;1.60;;
16254;SDS011;8235;52.198;9.904;2023-04-24T14:26:20;1.03;;;1.03;;
16254;SDS011;8235;52.198;9.904;2023-04-24T14:28:46;5.70;;;5.30;;
16254;SDS011;8235;52.198;9.904;2023-04-24T14:31:13;1.80;;;1.20;;
16254;SDS011;8235;52.198;9.904;2023-04-24T14:33:39;1.27;;;1.17;;
16254;SDS011;8235;52.198;9.904;2023-04-24T14:36:06;1.10;;;1.00;;
16254;SDS011;8235;52.198;9.904;2023-04-24T14:38:32;1.10;;;0.90;;
16254;SDS011;8235;52.198;9.904;2023-04-24T14:41:01;1.00;;;0.90;;
16254;SDS011;8235;52.198;9.904;2023-04-24T14:43:33;1.47;;;1.10;;
16254;SDS011;8235;52.198;9.904;2023-04-24T14:46:00;1.27;;;0.90;;
16254;SDS011;8235;52.198;9.904;2023-04-24T14:48:27;1.10;;;1.00;;
16254;SDS011;8235;52.198;9.904;2023-04-24T14:50:53;1.00;;;0.90;;
16254;SDS011;8235;52.198;9.904;2023-04-24T14:53:20;2.07;;;1.07;;
16254;SDS011;8235;52.198;9.904;2023-04-24T14:55:46;3.43;;;2.43;;
16254;SDS011;8235;52.198;9.904;2023-04-24T14:58:14;1.33;;;1.23;;
16254;SDS011;8235;52.198;9.904;2023-04-24T15:00:41;2.33;;;2.13;;
16254;SDS011;8235;52.198;9.904;2023-04-24T15:03:07;5.97;;;4.90;;
16254;SDS011;8235;52.198;9.904;2023-04-24T15:05:34;5.67;;;3.33;;
16254;SDS011;8235;52.198;9.904;2023-04-24T15:08:00;4.20;;;3.00;;
16254;SDS011;8235;52.198;9.904;2023-04-24T15:10:27;3.03;;;1.80;;
16254;SDS011;8235;52.198;9.904;2023-04-24T15:12:54;5.80;;;3.87;;